sensor_id;sensor_type;location;lat;lon;timestamp;temperature;humidity
3736;DHT22;1883;48.202;16.310;2022-08-20T00:00:07;20.20;33.50
3736;DHT22;1883;48.202;16.310;2022-08-20T00:02:38;20.20;33.10
3736;DHT22;1883;48.202;16.310;2022-08-20T00:12:54;20.10;31.20
3736;DHT22;1883;48.202;16.310;2022-08-20T00:15:26;20.10;30.50
3736;DHT22;1883;48.202;16.310;2022-08-20T00:17:54;20.10;99.90
3736;DHT22;1883;48.202;16.310;2022-08-20T00:20:23;20.10;99.90
3736;DHT22;1883;48.202;16.310;2022-08-20T00:22:50;20.10;99.90
3736;DHT22;1883;48.202;16.310;2022-08-20T00:27:54;20.10;99.90
3736;DHT22;1883;48.202;16.310;2022-08-20T00:30:22;20.10;99.90
3736;DHT22;1883;48.202;16.310;2022-08-20T00:32:52;20.10;99.90
3736;DHT22;1883;48.202;16.310;2022-08-20T00:35:22;20.10;99.90
3736;DHT22;1883;48.202;16.310;2022-08-20T00:37:50;20.10;99.90
3736;DHT22;1883;48.202;16.310;2022-08-20T00:40:21;20.10;99.90
3736;DHT22;1883;48.202;16.310;2022-08-20T00:42:51;20.10;99.90
3736;DHT22;1883;48.202;16.310;2022-08-20T00:45:20;20.10;99.90
3736;DHT22;1883;48.202;16.310;2022-08-20T00:47:47;20.10;99.90
3736;DHT22;1883;48.202;16.310;2022-08-20T00:50:18;20.20;99.90
3736;DHT22;1883;48.202;16.310;2022-08-20T00:55:23;20.30;99.90
3736;DHT22;1883;48.202;16.310;2022-08-20T01:00:30;20.30;99.90
3736;DHT22;1883;48.202;16.310;2022-08-20T01:02:58;20.30;99.90
3736;DHT22;1883;48.202;16.310;2022-08-20T01:15:51;20.30;30.50
3736;DHT22;1883;48.202;16.310;2022-08-20T01:18:22;20.30;30.90
3736;DHT22;1883;48.202;16.310;2022-08-20T01:20:53;20.40;32.00
3736;DHT22;1883;48.202;16.310;2022-08-20T01:23:26;20.30;32.90
3736;DHT22;1883;48.202;16.310;2022-08-20T01:31:10;20.30;35.70
3736;DHT22;1883;48.202;16.310;2022-08-20T01:33:38;20.40;37.30
3736;DHT22;1883;48.202;16.310;2022-08-20T01:36:06;20.40;38.30
3736;DHT22;1883;48.202;16.310;2022-08-20T01:38:35;20.40;40.10
3736;DHT22;1883;48.202;16.310;2022-08-20T01:43:56;20.40;40.50
3736;DHT22;1883;48.202;16.310;2022-08-20T01:46:28;20.50;40.80
3736;DHT22;1883;48.202;16.310;2022-08-20T01:48:56;20.40;41.10
3736;DHT22;1883;48.202;16.310;2022-08-20T01:51:25;20.50;41.80
3736;DHT22;1883;48.202;16.310;2022-08-20T01:53:55;20.50;41.90
3736;DHT22;1883;48.202;16.310;2022-08-20T01:56:26;20.50;42.00
3736;DHT22;1883;48.202;16.310;2022-08-20T01:58:56;20.50;43.00
3736;DHT22;1883;48.202;16.310;2022-08-20T02:01:27;20.50;43.50
3736;DHT22;1883;48.202;16.310;2022-08-20T02:03:55;20.50;44.20
3736;DHT22;1883;48.202;16.310;2022-08-20T02:06:24;20.40;45.80
3736;DHT22;1883;48.202;16.310;2022-08-20T02:08:53;20.40;44.80
3736;DHT22;1883;48.202;16.310;2022-08-20T02:11:21;20.40;45.60
3736;DHT22;1883;48.202;16.310;2022-08-20T02:13:49;20.40;46.80
3736;DHT22;1883;48.202;16.310;2022-08-20T02:16:19;20.40;47.60
3736;DHT22;1883;48.202;16.310;2022-08-20T02:18:49;20.50;48.70
3736;DHT22;1883;48.202;16.310;2022-08-20T02:21:19;20.40;49.00
3736;DHT22;1883;48.202;16.310;2022-08-20T02:23:46;20.40;49.50
3736;DHT22;1883;48.202;16.310;2022-08-20T02:42:56;20.50;54.70
3736;DHT22;1883;48.202;16.310;2022-08-20T02:45:23;20.50;55.50
3736;DHT22;1883;48.202;16.310;2022-08-20T02:47:50;20.50;56.30
3736;DHT22;1883;48.202;16.310;2022-08-20T02:50:22;20.50;56.30
3736;DHT22;1883;48.202;16.310;2022-08-20T02:52:49;20.50;56.40
3736;DHT22;1883;48.202;16.310;2022-08-20T02:55:16;20.40;57.70
3736;DHT22;1883;48.202;16.310;2022-08-20T02:57:43;20.40;57.30
3736;DHT22;1883;48.202;16.310;2022-08-20T03:00:15;20.40;58.30
3736;DHT22;1883;48.202;16.310;2022-08-20T03:02:43;20.40;58.20
3736;DHT22;1883;48.202;16.310;2022-08-20T03:05:11;20.40;59.00
3736;DHT22;1883;48.202;16.310;2022-08-20T03:07:42;20.40;59.40
3736;DHT22;1883;48.202;16.310;2022-08-20T03:10:10;20.40;59.60
3736;DHT22;1883;48.202;16.310;2022-08-20T03:15:16;20.30;61.80
3736;DHT22;1883;48.202;16.310;2022-08-20T03:22:54;20.20;61.90
3736;DHT22;1883;48.202;16.310;2022-08-20T03:25:22;20.20;61.70
3736;DHT22;1883;48.202;16.310;2022-08-20T03:27:49;20.20;62.20
3736;DHT22;1883;48.202;16.310;2022-08-20T03:30:18;20.30;62.30
3736;DHT22;1883;48.202;16.310;2022-08-20T03:37:56;20.20;62.60
3736;DHT22;1883;48.202;16.310;2022-08-20T03:40:29;20.20;62.70
3736;DHT22;1883;48.202;16.310;2022-08-20T03:48:14;20.10;62.60
3736;DHT22;1883;48.202;16.310;2022-08-20T03:50:42;20.10;62.60
3736;DHT22;1883;48.202;16.310;2022-08-20T03:53:10;20.10;62.40
3736;DHT22;1883;48.202;16.310;2022-08-20T03:55:39;20.10;62.60
3736;DHT22;1883;48.202;16.310;2022-08-20T03:58:08;20.10;63.00
